sensor_id;sensor_type;location;lat;lon;timestamp;P1;durP1;ratioP1;P2;durP2;ratioP2
24685;SDS011;12804;51.176;4.452;2022-11-20T00:00:49;24.25;;;16.38;;
24685;SDS011;12804;51.176;4.452;2022-11-20T00:03:15;24.48;;;16.35;;
24685;SDS011;12804;51.176;4.452;2022-11-20T00:05:42;22.33;;;15.57;;
24685;SDS011;12804;51.176;4.452;2022-11-20T00:08:08;22.08;;;15.60;;
24685;SDS011;12804;51.176;4.452;2022-11-20T00:10:37;23.30;;;15.90;;
24685;SDS011;12804;51.176;4.452;2022-11-20T00:13:05;22.65;;;16.60;;
24685;SDS011;12804;51.176;4.452;2022-11-20T00:15:31;24.00;;;17.05;;
24685;SDS011;12804;51.176;4.452;2022-11-20T00:17:56;24.65;;;16.40;;
24685;SDS011;12804;51.176;4.452;2022-11-20T00:20:22;22.58;;;16.08;;
24685;SDS011;12804;51.176;4.452;2022-11-20T00:22:49;22.95;;;15.88;;
24685;SDS011;12804;51.176;4.452;2022-11-20T00:25:15;21.92;;;15.77;;
24685;SDS011;12804;51.176;4.452;2022-11-20T00:27:41;22.98;;;15.98;;
24685;SDS011;12804;51.176;4.452;2022-11-20T00:30:07;22.92;;;14.88;;
24685;SDS011;12804;51.176;4.452;2022-11-20T00:32:33;22.35;;;15.07;;
24685;SDS011;12804;51.176;4.452;2022-11-20T00:34:59;20.20;;;15.07;;
24685;SDS011;12804;51.176;4.452;2022-11-20T00:37:24;21.88;;;15.45;;
24685;SDS011;12804;51.176;4.452;2022-11-20T00:39:50;21.75;;;15.82;;
24685;SDS011;12804;51.176;4.452;2022-11-20T00:42:16;21.83;;;15.70;;
24685;SDS011;12804;51.176;4.452;2022-11-20T00:44:42;21.10;;;15.30;;
24685;SDS011;12804;51.176;4.452;2022-11-20T00:47:08;21.90;;;15.35;;
24685;SDS011;12804;51.176;4.452;2022-11-20T00:49:34;23.83;;;16.20;;
24685;SDS011;12804;51.176;4.452;2022-11-20T00:52:00;22.60;;;15.52;;
24685;SDS011;12804;51.176;4.452;2022-11-20T00:54:25;23.90;;;16.08;;
24685;SDS011;12804;51.176;4.452;2022-11-20T00:56:54;23.23;;;16.08;;
24685;SDS011;12804;51.176;4.452;2022-11-20T00:59:20;21.42;;;14.63;;
24685;SDS011;12804;51.176;4.452;2022-11-20T01:01:46;21.52;;;15.48;;
24685;SDS011;12804;51.176;4.452;2022-11-20T01:04:11;20.33;;;15.35;;
24685;SDS011;12804;51.176;4.452;2022-11-20T01:06:38;26.30;;;15.95;;
24685;SDS011;12804;51.176;4.452;2022-11-20T01:09:06;23.35;;;16.20;;
24685;SDS011;12804;51.176;4.452;2022-11-20T01:11:35;20.52;;;15.10;;
24685;SDS011;12804;51.176;4.452;2022-11-20T01:14:04;24.08;;;15.82;;
24685;SDS011;12804;51.176;4.452;2022-11-20T01:16:33;23.50;;;15.63;;
24685;SDS011;12804;51.176;4.452;2022-11-20T01:19:00;23.33;;;15.77;;
24685;SDS011;12804;51.176;4.452;2022-11-20T01:21:29;20.85;;;15.43;;
24685;SDS011;12804;51.176;4.452;2022-11-20T01:23:57;22.30;;;15.52;;
24685;SDS011;12804;51.176;4.452;2022-11-20T01:26:24;22.13;;;15.52;;
24685;SDS011;12804;51.176;4.452;2022-11-20T01:28:53;22.85;;;15.65;;
24685;SDS011;12804;51.176;4.452;2022-11-20T01:31:21;22.85;;;15.98;;
24685;SDS011;12804;51.176;4.452;2022-11-20T01:33:53;21.90;;;15.40;;
24685;SDS011;12804;51.176;4.452;2022-11-20T01:36:22;20.58;;;14.70;;
24685;SDS011;12804;51.176;4.452;2022-11-20T01:38:56;22.42;;;15.45;;
24685;SDS011;12804;51.176;4.452;2022-11-20T01:41:24;22.73;;;15.40;;
24685;SDS011;12804;51.176;4.452;2022-11-20T01:44:10;22.08;;;14.75;;
24685;SDS011;12804;51.176;4.452;2022-11-20T01:46:40;22.08;;;15.25;;
24685;SDS011;12804;51.176;4.452;2022-11-20T01:49:18;23.88;;;16.35;;
24685;SDS011;12804;51.176;4.452;2022-11-20T01:51:52;25.05;;;15.77;;
24685;SDS011;12804;51.176;4.452;2022-11-20T01:54:38;24.50;;;16.45;;
24685;SDS011;12804;51.176;4.452;2022-11-20T01:57:18;23.67;;;15.45;;
24685;SDS011;12804;51.176;4.452;2022-11-20T01:59:48;21.65;;;15.70;;
24685;SDS011;12804;51.176;4.452;2022-11-20T02:02:19;24.52;;;16.42;;
24685;SDS011;12804;51.176;4.452;2022-11-20T02:04:46;25.98;;;17.05;;
24685;SDS011;12804;51.176;4.452;2022-11-20T02:07:14;26.67;;;16.52;;
24685;SDS011;12804;51.176;4.452;2022-11-20T02:09:40;22.90;;;16.05;;
24685;SDS011;12804;51.176;4.452;2022-11-20T02:12:06;23.30;;;16.42;;
24685;SDS011;12804;51.176;4.452;2022-11-20T02:14:52;24.02;;;16.48;;
24685;SDS011;12804;51.176;4.452;2022-11-20T02:17:18;24.35;;;16.13;;
24685;SDS011;12804;51.176;4.452;2022-11-20T02:19:43;24.33;;;16.73;;
24685;SDS011;12804;51.176;4.452;2022-11-20T02:22:32;21.65;;;15.98;;
24685;SDS011;12804;51.176;4.452;2022-11-20T02:25:03;24.45;;;16.20;;
24685;SDS011;12804;51.176;4.452;2022-11-20T02:27:31;26.38;;;16.98;;
24685;SDS011;12804;51.176;4.452;2022-11-20T02:29:57;23.15;;;16.08;;
24685;SDS011;12804;51.176;4.452;2022-11-20T02:32:28;25.10;;;16.95;;
24685;SDS011;12804;51.176;4.452;2022-11-20T02:35:06;24.67;;;17.03;;
24685;SDS011;12804;51.176;4.452;2022-11-20T02:37:34;25.60;;;16.10;;
24685;SDS011;12804;51.176;4.452;2022-11-20T02:40:04;28.30;;;16.55;;
24685;SDS011;12804;51.176;4.452;2022-11-20T02:42:30;24.58;;;16.20;;
24685;SDS011;12804;51.176;4.452;2022-11-20T02:44:56;25.38;;;16.30;;
24685;SDS011;12804;51.176;4.452;2022-11-20T02:47:21;26.05;;;16.70;;
24685;SDS011;12804;51.176;4.452;2022-11-20T02:49:47;23.30;;;16.55;;
24685;SDS011;12804;51.176;4.452;2022-11-20T02:52:13;27.27;;;16.73;;
24685;SDS011;12804;51.176;4.452;2022-11-20T02:54:39;26.60;;;16.88;;
24685;SDS011;12804;51.176;4.452;2022-11-20T02:57:04;25.67;;;17.83;;
24685;SDS011;12804;51.176;4.452;2022-11-20T02:59:30;24.40;;;16.63;;
24685;SDS011;12804;51.176;4.452;2022-11-20T03:01:56;26.77;;;17.23;;
24685;SDS011;12804;51.176;4.452;2022-11-20T03:04:22;25.38;;;16.70;;
24685;SDS011;12804;51.176;4.452;2022-11-20T03:06:47;24.67;;;16.27;;
24685;SDS011;12804;51.176;4.452;2022-11-20T03:09:13;25.88;;;17.33;;
24685;SDS011;12804;51.176;4.452;2022-11-20T03:11:39;27.60;;;17.65;;
24685;SDS011;12804;51.176;4.452;2022-11-20T03:14:05;28.65;;;17.58;;
24685;SDS011;12804;51.176;4.452;2022-11-20T03:16:31;26.70;;;18.00;;
24685;SDS011;12804;51.176;4.452;2022-11-20T03:18:57;26.55;;;17.27;;
24685;SDS011;12804;51.176;4.452;2022-11-20T03:21:24;25.30;;;16.55;;
24685;SDS011;12804;51.176;4.452;2022-11-20T03:23:50;32.58;;;17.20;;
24685;SDS011;12804;51.176;4.452;2022-11-20T03:26:16;27.30;;;18.58;;
24685;SDS011;12804;51.176;4.452;2022-11-20T03:28:51;24.92;;;17.00;;
24685;SDS011;12804;51.176;4.452;2022-11-20T03:31:23;28.45;;;17.13;;
24685;SDS011;12804;51.176;4.452;2022-11-20T03:33:53;27.15;;;17.88;;
24685;SDS011;12804;51.176;4.452;2022-11-20T03:36:19;25.95;;;17.38;;
24685;SDS011;12804;51.176;4.452;2022-11-20T03:38:46;26.58;;;17.92;;
24685;SDS011;12804;51.176;4.452;2022-11-20T03:41:17;31.80;;;18.77;;
24685;SDS011;12804;51.176;4.452;2022-11-20T03:43:54;34.17;;;19.92;;
24685;SDS011;12804;51.176;4.452;2022-11-20T03:46:24;31.85;;;19.65;;
24685;SDS011;12804;51.176;4.452;2022-11-20T03:48:51;35.92;;;20.77;;
24685;SDS011;12804;51.176;4.452;2022-11-20T03:51:18;39.97;;;22.83;;
24685;SDS011;12804;51.176;4.452;2022-11-20T03:53:46;39.03;;;22.45;;
24685;SDS011;12804;51.176;4.452;2022-11-20T03:56:14;38.55;;;22.48;;
24685;SDS011;12804;51.176;4.452;2022-11-20T03:58:41;40.22;;;24.23;;
24685;SDS011;12804;51.176;4.452;2022-11-20T04:01:09;43.35;;;24.08;;
24685;SDS011;12804;51.176;4.452;2022-11-20T04:03:38;43.08;;;23.70;;
24685;SDS011;12804;51.176;4.452;2022-11-20T04:06:06;40.03;;;23.90;;
24685;SDS011;12804;51.176;4.452;2022-11-20T04:08:33;39.88;;;23.92;;
24685;SDS011;12804;51.176;4.452;2022-11-20T04:11:20;39.80;;;22.60;;
24685;SDS011;12804;51.176;4.452;2022-11-20T04:13:49;44.38;;;24.15;;
24685;SDS011;12804;51.176;4.452;2022-11-20T04:16:17;38.70;;;23.27;;
24685;SDS011;12804;51.176;4.452;2022-11-20T04:18:43;39.50;;;23.95;;
24685;SDS011;12804;51.176;4.452;2022-11-20T04:21:09;44.08;;;24.92;;
24685;SDS011;12804;51.176;4.452;2022-11-20T04:23:35;41.42;;;24.30;;
24685;SDS011;12804;51.176;4.452;2022-11-20T04:26:02;40.45;;;23.67;;
24685;SDS011;12804;51.176;4.452;2022-11-20T04:28:32;43.03;;;24.63;;
24685;SDS011;12804;51.176;4.452;2022-11-20T04:31:05;41.55;;;23.70;;
24685;SDS011;12804;51.176;4.452;2022-11-20T04:33:39;43.28;;;24.80;;
24685;SDS011;12804;51.176;4.452;2022-11-20T04:36:06;44.17;;;24.95;;
24685;SDS011;12804;51.176;4.452;2022-11-20T04:38:40;41.28;;;23.92;;
24685;SDS011;12804;51.176;4.452;2022-11-20T04:41:06;37.80;;;23.30;;
24685;SDS011;12804;51.176;4.452;2022-11-20T04:43:36;40.60;;;23.15;;
24685;SDS011;12804;51.176;4.452;2022-11-20T04:46:02;40.63;;;23.73;;
24685;SDS011;12804;51.176;4.452;2022-11-20T04:48:28;40.15;;;24.60;;
24685;SDS011;12804;51.176;4.452;2022-11-20T04:50:54;42.15;;;24.80;;
24685;SDS011;12804;51.176;4.452;2022-11-20T04:53:20;43.08;;;24.45;;
24685;SDS011;12804;51.176;4.452;2022-11-20T04:55:47;43.40;;;24.02;;
24685;SDS011;12804;51.176;4.452;2022-11-20T04:58:13;43.80;;;25.25;;
24685;SDS011;12804;51.176;4.452;2022-11-20T05:00:39;41.47;;;24.38;;
24685;SDS011;12804;51.176;4.452;2022-11-20T05:03:05;40.45;;;24.02;;
24685;SDS011;12804;51.176;4.452;2022-11-20T05:05:33;43.88;;;25.70;;
24685;SDS011;12804;51.176;4.452;2022-11-20T05:07:59;44.63;;;24.23;;
24685;SDS011;12804;51.176;4.452;2022-11-20T05:10:25;43.85;;;25.27;;
24685;SDS011;12804;51.176;4.452;2022-11-20T05:12:51;38.17;;;24.30;;
24685;SDS011;12804;51.176;4.452;2022-11-20T05:15:17;43.58;;;26.00;;
24685;SDS011;12804;51.176;4.452;2022-11-20T05:17:50;44.25;;;26.08;;
24685;SDS011;12804;51.176;4.452;2022-11-20T05:20:16;42.85;;;24.75;;
24685;SDS011;12804;51.176;4.452;2022-11-20T05:22:43;41.20;;;24.48;;
24685;SDS011;12804;51.176;4.452;2022-11-20T05:25:09;43.50;;;24.90;;
24685;SDS011;12804;51.176;4.452;2022-11-20T05:27:35;45.35;;;24.63;;
24685;SDS011;12804;51.176;4.452;2022-11-20T05:30:02;46.30;;;26.02;;
24685;SDS011;12804;51.176;4.452;2022-11-20T05:32:29;44.42;;;25.50;;
24685;SDS011;12804;51.176;4.452;2022-11-20T05:34:54;43.58;;;24.95;;
24685;SDS011;12804;51.176;4.452;2022-11-20T05:37:20;43.58;;;25.35;;
24685;SDS011;12804;51.176;4.452;2022-11-20T05:39:46;47.97;;;25.42;;
24685;SDS011;12804;51.176;4.452;2022-11-20T05:42:12;43.30;;;25.13;;
24685;SDS011;12804;51.176;4.452;2022-11-20T05:45:07;44.35;;;25.23;;
24685;SDS011;12804;51.176;4.452;2022-11-20T05:47:33;45.45;;;24.90;;
24685;SDS011;12804;51.176;4.452;2022-11-20T05:50:00;46.75;;;24.85;;
24685;SDS011;12804;51.176;4.452;2022-11-20T05:52:29;43.47;;;25.27;;
24685;SDS011;12804;51.176;4.452;2022-11-20T05:54:55;43.97;;;25.08;;
24685;SDS011;12804;51.176;4.452;2022-11-20T05:57:22;44.25;;;25.38;;
24685;SDS011;12804;51.176;4.452;2022-11-20T05:59:47;42.60;;;23.98;;
24685;SDS011;12804;51.176;4.452;2022-11-20T06:02:13;47.25;;;25.95;;
24685;SDS011;12804;51.176;4.452;2022-11-20T06:04:39;42.55;;;24.50;;
24685;SDS011;12804;51.176;4.452;2022-11-20T06:07:05;46.63;;;26.35;;
24685;SDS011;12804;51.176;4.452;2022-11-20T06:09:31;47.08;;;25.50;;
24685;SDS011;12804;51.176;4.452;2022-11-20T06:11:57;43.38;;;24.77;;
24685;SDS011;12804;51.176;4.452;2022-11-20T06:14:23;45.45;;;25.50;;
24685;SDS011;12804;51.176;4.452;2022-11-20T06:16:49;42.05;;;24.30;;
24685;SDS011;12804;51.176;4.452;2022-11-20T06:19:15;41.50;;;24.95;;
24685;SDS011;12804;51.176;4.452;2022-11-20T06:21:40;44.10;;;25.23;;
24685;SDS011;12804;51.176;4.452;2022-11-20T06:24:06;46.00;;;25.15;;
24685;SDS011;12804;51.176;4.452;2022-11-20T06:26:34;40.67;;;24.48;;
24685;SDS011;12804;51.176;4.452;2022-11-20T06:29:00;43.80;;;25.50;;
24685;SDS011;12804;51.176;4.452;2022-11-20T06:31:26;45.90;;;25.00;;
24685;SDS011;12804;51.176;4.452;2022-11-20T06:33:52;45.97;;;24.98;;
24685;SDS011;12804;51.176;4.452;2022-11-20T06:36:19;44.30;;;24.27;;
24685;SDS011;12804;51.176;4.452;2022-11-20T06:38:47;43.97;;;24.38;;
24685;SDS011;12804;51.176;4.452;2022-11-20T06:41:14;44.58;;;24.63;;
24685;SDS011;12804;51.176;4.452;2022-11-20T06:43:42;46.88;;;26.15;;
24685;SDS011;12804;51.176;4.452;2022-11-20T06:46:09;44.25;;;26.67;;
24685;SDS011;12804;51.176;4.452;2022-11-20T06:48:38;44.47;;;25.35;;
24685;SDS011;12804;51.176;4.452;2022-11-20T06:51:05;48.05;;;25.65;;
24685;SDS011;12804;51.176;4.452;2022-11-20T06:53:32;46.08;;;24.92;;
24685;SDS011;12804;51.176;4.452;2022-11-20T06:55:58;47.40;;;26.25;;
24685;SDS011;12804;51.176;4.452;2022-11-20T06:58:26;44.55;;;24.63;;
24685;SDS011;12804;51.176;4.452;2022-11-20T07:00:53;44.65;;;25.95;;
24685;SDS011;12804;51.176;4.452;2022-11-20T07:03:22;44.85;;;25.00;;
24685;SDS011;12804;51.176;4.452;2022-11-20T07:05:48;44.95;;;25.45;;
24685;SDS011;12804;51.176;4.452;2022-11-20T07:08:14;43.33;;;24.55;;
24685;SDS011;12804;51.176;4.452;2022-11-20T07:10:39;46.83;;;25.67;;
24685;SDS011;12804;51.176;4.452;2022-11-20T07:13:05;44.58;;;25.08;;
24685;SDS011;12804;51.176;4.452;2022-11-20T07:15:32;47.05;;;27.10;;
24685;SDS011;12804;51.176;4.452;2022-11-20T07:17:59;43.78;;;24.35;;
24685;SDS011;12804;51.176;4.452;2022-11-20T07:20:25;47.60;;;26.58;;
24685;SDS011;12804;51.176;4.452;2022-11-20T07:22:55;42.38;;;24.80;;
24685;SDS011;12804;51.176;4.452;2022-11-20T07:25:25;45.22;;;25.63;;
24685;SDS011;12804;51.176;4.452;2022-11-20T07:27:52;40.17;;;23.40;;
24685;SDS011;12804;51.176;4.452;2022-11-20T07:30:21;41.75;;;23.42;;
24685;SDS011;12804;51.176;4.452;2022-11-20T07:32:47;42.17;;;24.60;;
24685;SDS011;12804;51.176;4.452;2022-11-20T07:35:16;42.13;;;24.30;;
24685;SDS011;12804;51.176;4.452;2022-11-20T07:37:42;41.67;;;24.75;;
24685;SDS011;12804;51.176;4.452;2022-11-20T07:40:08;40.28;;;23.40;;
24685;SDS011;12804;51.176;4.452;2022-11-20T07:42:34;42.72;;;24.85;;
24685;SDS011;12804;51.176;4.452;2022-11-20T07:45:00;43.53;;;24.13;;
24685;SDS011;12804;51.176;4.452;2022-11-20T07:47:26;40.22;;;24.40;;
24685;SDS011;12804;51.176;4.452;2022-11-20T07:49:52;40.95;;;24.38;;
24685;SDS011;12804;51.176;4.452;2022-11-20T07:52:17;40.55;;;23.60;;
24685;SDS011;12804;51.176;4.452;2022-11-20T07:54:43;45.03;;;24.75;;
24685;SDS011;12804;51.176;4.452;2022-11-20T07:57:09;40.42;;;24.23;;
24685;SDS011;12804;51.176;4.452;2022-11-20T07:59:35;44.53;;;24.38;;
24685;SDS011;12804;51.176;4.452;2022-11-20T08:02:01;42.67;;;24.52;;
24685;SDS011;12804;51.176;4.452;2022-11-20T08:04:27;45.45;;;25.48;;
24685;SDS011;12804;51.176;4.452;2022-11-20T08:06:53;43.72;;;24.70;;
24685;SDS011;12804;51.176;4.452;2022-11-20T08:09:19;43.10;;;23.90;;
24685;SDS011;12804;51.176;4.452;2022-11-20T08:11:44;44.42;;;25.73;;
24685;SDS011;12804;51.176;4.452;2022-11-20T08:14:29;41.22;;;23.63;;
24685;SDS011;12804;51.176;4.452;2022-11-20T08:16:54;38.90;;;21.63;;
24685;SDS011;12804;51.176;4.452;2022-11-20T08:19:20;42.85;;;24.27;;
24685;SDS011;12804;51.176;4.452;2022-11-20T08:21:46;40.53;;;23.42;;
24685;SDS011;12804;51.176;4.452;2022-11-20T08:24:12;45.05;;;24.92;;
24685;SDS011;12804;51.176;4.452;2022-11-20T08:26:38;38.13;;;22.65;;
24685;SDS011;12804;51.176;4.452;2022-11-20T08:29:04;42.40;;;23.60;;
24685;SDS011;12804;51.176;4.452;2022-11-20T08:31:31;40.05;;;22.90;;
24685;SDS011;12804;51.176;4.452;2022-11-20T08:33:57;42.33;;;22.90;;
24685;SDS011;12804;51.176;4.452;2022-11-20T08:36:23;41.17;;;23.42;;
24685;SDS011;12804;51.176;4.452;2022-11-20T08:38:50;40.58;;;23.85;;
24685;SDS011;12804;51.176;4.452;2022-11-20T08:41:17;40.30;;;23.90;;
24685;SDS011;12804;51.176;4.452;2022-11-20T08:43:59;28.25;;;16.05;;
24685;SDS011;12804;51.176;4.452;2022-11-20T08:46:33;44.88;;;23.08;;
24685;SDS011;12804;51.176;4.452;2022-11-20T08:49:05;40.95;;;23.27;;
24685;SDS011;12804;51.176;4.452;2022-11-20T08:51:32;44.83;;;23.40;;
24685;SDS011;12804;51.176;4.452;2022-11-20T08:53:58;44.63;;;22.50;;
24685;SDS011;12804;51.176;4.452;2022-11-20T08:56:24;46.15;;;23.08;;
24685;SDS011;12804;51.176;4.452;2022-11-20T08:58:50;40.85;;;23.77;;
24685;SDS011;12804;51.176;4.452;2022-11-20T09:01:17;40.92;;;22.25;;
24685;SDS011;12804;51.176;4.452;2022-11-20T09:03:45;41.92;;;23.08;;
24685;SDS011;12804;51.176;4.452;2022-11-20T09:06:10;42.38;;;23.63;;
24685;SDS011;12804;51.176;4.452;2022-11-20T09:08:36;43.05;;;24.08;;
24685;SDS011;12804;51.176;4.452;2022-11-20T09:11:02;42.47;;;23.63;;
24685;SDS011;12804;51.176;4.452;2022-11-20T09:13:29;42.67;;;23.40;;
24685;SDS011;12804;51.176;4.452;2022-11-20T09:15:56;43.75;;;24.45;;
24685;SDS011;12804;51.176;4.452;2022-11-20T09:18:24;41.88;;;22.77;;
24685;SDS011;12804;51.176;4.452;2022-11-20T09:20:50;42.60;;;23.75;;
24685;SDS011;12804;51.176;4.452;2022-11-20T09:23:16;44.25;;;24.48;;
24685;SDS011;12804;51.176;4.452;2022-11-20T09:25:43;47.28;;;24.13;;
24685;SDS011;12804;51.176;4.452;2022-11-20T09:28:09;45.72;;;24.45;;
24685;SDS011;12804;51.176;4.452;2022-11-20T09:30:35;45.70;;;24.08;;
24685;SDS011;12804;51.176;4.452;2022-11-20T09:33:00;49.05;;;24.13;;
24685;SDS011;12804;51.176;4.452;2022-11-20T09:35:28;44.53;;;22.92;;
24685;SDS011;12804;51.176;4.452;2022-11-20T09:37:54;44.90;;;24.52;;
24685;SDS011;12804;51.176;4.452;2022-11-20T09:40:21;45.72;;;23.98;;
24685;SDS011;12804;51.176;4.452;2022-11-20T09:50:46;43.08;;;22.90;;
24685;SDS011;12804;51.176;4.452;2022-11-20T09:54:22;48.73;;;23.80;;
24685;SDS011;12804;51.176;4.452;2022-11-20T09:56:16;44.10;;;23.95;;
24685;SDS011;12804;51.176;4.452;2022-11-20T09:58:49;52.78;;;24.00;;
24685;SDS011;12804;51.176;4.452;2022-11-20T10:01:17;53.83;;;23.98;;
24685;SDS011;12804;51.176;4.452;2022-11-20T10:06:17;48.90;;;24.50;;
24685;SDS011;12804;51.176;4.452;2022-11-20T10:08:48;52.17;;;25.38;;
24685;SDS011;12804;51.176;4.452;2022-11-20T10:27:32;64.55;;;26.25;;
24685;SDS011;12804;51.176;4.452;2022-11-20T10:30:17;63.78;;;26.98;;
24685;SDS011;12804;51.176;4.452;2022-11-20T10:33:00;64.38;;;27.92;;
24685;SDS011;12804;51.176;4.452;2022-11-20T10:35:35;64.88;;;27.48;;
24685;SDS011;12804;51.176;4.452;2022-11-20T10:38:12;62.45;;;27.23;;
24685;SDS011;12804;51.176;4.452;2022-11-20T10:40:45;64.35;;;27.15;;
24685;SDS011;12804;51.176;4.452;2022-11-20T10:43:40;63.92;;;28.20;;
24685;SDS011;12804;51.176;4.452;2022-11-20T10:46:10;64.05;;;26.40;;
24685;SDS011;12804;51.176;4.452;2022-11-20T10:48:43;68.40;;;27.65;;
24685;SDS011;12804;51.176;4.452;2022-11-20T10:56:48;66.75;;;28.95;;
24685;SDS011;12804;51.176;4.452;2022-11-20T10:59:37;65.78;;;28.33;;
24685;SDS011;12804;51.176;4.452;2022-11-20T11:02:21;63.65;;;26.75;;
24685;SDS011;12804;51.176;4.452;2022-11-20T11:04:50;65.07;;;27.55;;
24685;SDS011;12804;51.176;4.452;2022-11-20T11:07:23;63.50;;;27.13;;
24685;SDS011;12804;51.176;4.452;2022-11-20T11:09:55;65.95;;;27.20;;
24685;SDS011;12804;51.176;4.452;2022-11-20T11:12:24;59.83;;;27.40;;
24685;SDS011;12804;51.176;4.452;2022-11-20T11:14:56;65.10;;;27.70;;
24685;SDS011;12804;51.176;4.452;2022-11-20T11:17:24;60.22;;;27.05;;
24685;SDS011;12804;51.176;4.452;2022-11-20T11:20:03;61.50;;;27.92;;
24685;SDS011;12804;51.176;4.452;2022-11-20T11:22:49;58.45;;;27.02;;
24685;SDS011;12804;51.176;4.452;2022-11-20T11:27:46;56.25;;;25.13;;
24685;SDS011;12804;51.176;4.452;2022-11-20T11:30:17;61.85;;;26.20;;
24685;SDS011;12804;51.176;4.452;2022-11-20T11:32:44;53.75;;;25.30;;
24685;SDS011;12804;51.176;4.452;2022-11-20T11:37:50;54.92;;;25.70;;
24685;SDS011;12804;51.176;4.452;2022-11-20T11:40:19;56.83;;;25.25;;
24685;SDS011;12804;51.176;4.452;2022-11-20T11:42:50;52.10;;;23.83;;
24685;SDS011;12804;51.176;4.452;2022-11-20T11:45:28;50.28;;;23.30;;
24685;SDS011;12804;51.176;4.452;2022-11-20T11:47:55;51.03;;;24.42;;
24685;SDS011;12804;51.176;4.452;2022-11-20T11:50:27;53.88;;;24.20;;
24685;SDS011;12804;51.176;4.452;2022-11-20T11:55:43;50.28;;;23.05;;
24685;SDS011;12804;51.176;4.452;2022-11-20T12:07:13;46.87;;;21.53;;
24685;SDS011;12804;51.176;4.452;2022-11-20T12:10:02;48.33;;;22.40;;
24685;SDS011;12804;51.176;4.452;2022-11-20T12:12:32;44.25;;;21.83;;
24685;SDS011;12804;51.176;4.452;2022-11-20T12:15:09;44.28;;;21.80;;
24685;SDS011;12804;51.176;4.452;2022-11-20T12:17:39;41.85;;;20.23;;
24685;SDS011;12804;51.176;4.452;2022-11-20T12:20:14;38.67;;;19.67;;
24685;SDS011;12804;51.176;4.452;2022-11-20T12:22:59;43.80;;;21.35;;
24685;SDS011;12804;51.176;4.452;2022-11-20T12:25:33;44.58;;;21.77;;
24685;SDS011;12804;51.176;4.452;2022-11-20T12:30:33;39.33;;;20.63;;
24685;SDS011;12804;51.176;4.452;2022-11-20T12:33:19;40.50;;;20.17;;
24685;SDS011;12804;51.176;4.452;2022-11-20T12:39:06;40.72;;;18.52;;
24685;SDS011;12804;51.176;4.452;2022-11-20T12:47:49;21.30;;;11.13;;
24685;SDS011;12804;51.176;4.452;2022-11-20T12:53:05;17.25;;;9.07;;
24685;SDS011;12804;51.176;4.452;2022-11-20T12:55:58;12.88;;;6.05;;
24685;SDS011;12804;51.176;4.452;2022-11-20T12:59:02;6.15;;;3.95;;
24685;SDS011;12804;51.176;4.452;2022-11-20T13:01:32;7.28;;;4.05;;
24685;SDS011;12804;51.176;4.452;2022-11-20T13:07:08;10.85;;;5.30;;
24685;SDS011;12804;51.176;4.452;2022-11-20T13:09:43;11.57;;;5.57;;
24685;SDS011;12804;51.176;4.452;2022-11-20T13:20:16;12.95;;;5.55;;
24685;SDS011;12804;51.176;4.452;2022-11-20T13:27:53;13.52;;;5.78;;
24685;SDS011;12804;51.176;4.452;2022-11-20T13:30:20;11.02;;;6.20;;
24685;SDS011;12804;51.176;4.452;2022-11-20T13:32:55;11.93;;;6.03;;
24685;SDS011;12804;51.176;4.452;2022-11-20T13:35:26;15.13;;;6.03;;
24685;SDS011;12804;51.176;4.452;2022-11-20T13:38:15;11.57;;;5.75;;
24685;SDS011;12804;51.176;4.452;2022-11-20T13:40:54;11.93;;;6.57;;
24685;SDS011;12804;51.176;4.452;2022-11-20T13:45:59;12.63;;;5.40;;
24685;SDS011;12804;51.176;4.452;2022-11-20T13:48:29;14.82;;;5.70;;
24685;SDS011;12804;51.176;4.452;2022-11-20T14:02:08;10.55;;;5.47;;
24685;SDS011;12804;51.176;4.452;2022-11-20T14:04:38;10.35;;;6.10;;
24685;SDS011;12804;51.176;4.452;2022-11-20T14:07:08;13.20;;;6.57;;
24685;SDS011;12804;51.176;4.452;2022-11-20T14:09:35;10.63;;;6.88;;
24685;SDS011;12804;51.176;4.452;2022-11-20T14:12:01;9.27;;;6.25;;
24685;SDS011;12804;51.176;4.452;2022-11-20T14:14:29;10.80;;;6.85;;
24685;SDS011;12804;51.176;4.452;2022-11-20T14:17:15;8.98;;;5.65;;
24685;SDS011;12804;51.176;4.452;2022-11-20T14:19:48;9.18;;;5.70;;
24685;SDS011;12804;51.176;4.452;2022-11-20T14:22:23;6.90;;;5.85;;
24685;SDS011;12804;51.176;4.452;2022-11-20T14:27:36;8.90;;;5.90;;
24685;SDS011;12804;51.176;4.452;2022-11-20T14:30:04;8.10;;;5.90;;
24685;SDS011;12804;51.176;4.452;2022-11-20T14:32:30;8.90;;;6.15;;
24685;SDS011;12804;51.176;4.452;2022-11-20T14:34:59;9.27;;;5.55;;
24685;SDS011;12804;51.176;4.452;2022-11-20T14:37:33;8.05;;;5.85;;
24685;SDS011;12804;51.176;4.452;2022-11-20T14:40:05;9.98;;;6.50;;
24685;SDS011;12804;51.176;4.452;2022-11-20T14:42:51;10.65;;;5.18;;
24685;SDS011;12804;51.176;4.452;2022-11-20T14:45:17;8.65;;;5.00;;
24685;SDS011;12804;51.176;4.452;2022-11-20T14:47:44;6.30;;;4.80;;
24685;SDS011;12804;51.176;4.452;2022-11-20T14:50:23;5.97;;;5.00;;
24685;SDS011;12804;51.176;4.452;2022-11-20T14:52:52;7.70;;;5.28;;
24685;SDS011;12804;51.176;4.452;2022-11-20T14:55:35;7.35;;;4.97;;
24685;SDS011;12804;51.176;4.452;2022-11-20T14:58:04;5.78;;;5.00;;
24685;SDS011;12804;51.176;4.452;2022-11-20T15:00:33;6.68;;;5.35;;
24685;SDS011;12804;51.176;4.452;2022-11-20T15:03:00;8.63;;;5.28;;
24685;SDS011;12804;51.176;4.452;2022-11-20T15:05:43;7.45;;;5.95;;
24685;SDS011;12804;51.176;4.452;2022-11-20T15:08:11;8.25;;;5.65;;
24685;SDS011;12804;51.176;4.452;2022-11-20T15:10:38;7.07;;;6.38;;
24685;SDS011;12804;51.176;4.452;2022-11-20T15:13:13;11.27;;;6.30;;
24685;SDS011;12804;51.176;4.452;2022-11-20T15:16:01;12.23;;;6.72;;
24685;SDS011;12804;51.176;4.452;2022-11-20T15:18:29;9.10;;;6.38;;
24685;SDS011;12804;51.176;4.452;2022-11-20T15:20:58;7.78;;;6.00;;
24685;SDS011;12804;51.176;4.452;2022-11-20T15:23:28;7.10;;;5.38;;
24685;SDS011;12804;51.176;4.452;2022-11-20T15:25:54;5.45;;;4.90;;
24685;SDS011;12804;51.176;4.452;2022-11-20T15:28:21;6.95;;;5.22;;
24685;SDS011;12804;51.176;4.452;2022-11-20T15:30:48;7.20;;;6.50;;
24685;SDS011;12804;51.176;4.452;2022-11-20T15:33:15;9.43;;;6.93;;
24685;SDS011;12804;51.176;4.452;2022-11-20T15:35:42;8.32;;;5.65;;
24685;SDS011;12804;51.176;4.452;2022-11-20T15:38:08;7.57;;;5.88;;
24685;SDS011;12804;51.176;4.452;2022-11-20T15:40:34;6.82;;;6.22;;
24685;SDS011;12804;51.176;4.452;2022-11-20T15:43:01;7.13;;;5.53;;
24685;SDS011;12804;51.176;4.452;2022-11-20T15:48:12;6.30;;;5.70;;
24685;SDS011;12804;51.176;4.452;2022-11-20T15:50:43;6.60;;;6.00;;
24685;SDS011;12804;51.176;4.452;2022-11-20T15:53:18;7.70;;;5.38;;
24685;SDS011;12804;51.176;4.452;2022-11-20T15:55:44;9.70;;;6.15;;
24685;SDS011;12804;51.176;4.452;2022-11-20T15:58:10;7.30;;;5.90;;
24685;SDS011;12804;51.176;4.452;2022-11-20T16:00:36;7.68;;;6.47;;
24685;SDS011;12804;51.176;4.452;2022-11-20T16:03:01;8.90;;;6.72;;
24685;SDS011;12804;51.176;4.452;2022-11-20T16:05:28;9.65;;;6.50;;
24685;SDS011;12804;51.176;4.452;2022-11-20T16:07:55;10.07;;;6.88;;
24685;SDS011;12804;51.176;4.452;2022-11-20T16:10:21;11.40;;;7.47;;
24685;SDS011;12804;51.176;4.452;2022-11-20T16:12:48;17.13;;;7.85;;
24685;SDS011;12804;51.176;4.452;2022-11-20T16:15:32;14.02;;;8.75;;
24685;SDS011;12804;51.176;4.452;2022-11-20T16:18:12;17.77;;;8.07;;